sensor_id;sensor_type;location;lat;lon;timestamp;P1;durP1;ratioP1;P2;durP2;ratioP2
76801;SDS011;65752;50.832;10.950;2022-12-18T00:00:43;8.10;;;4.80;;
76801;SDS011;65752;50.832;10.950;2022-12-18T00:01:43;12.38;;;5.57;;
76801;SDS011;65752;50.832;10.950;2022-12-18T00:02:44;12.90;;;6.03;;
76801;SDS011;65752;50.832;10.950;2022-12-18T00:03:44;11.13;;;5.50;;
76801;SDS011;65752;50.832;10.950;2022-12-18T00:04:45;7.55;;;4.63;;
76801;SDS011;65752;50.832;10.950;2022-12-18T00:05:49;11.27;;;5.55;;
76801;SDS011;65752;50.832;10.950;2022-12-18T00:06:50;7.95;;;4.82;;
76801;SDS011;65752;50.832;10.950;2022-12-18T00:07:51;7.38;;;4.45;;
76801;SDS011;65752;50.832;10.950;2022-12-18T00:08:51;9.90;;;5.50;;
76801;SDS011;65752;50.832;10.950;2022-12-18T00:09:51;13.93;;;5.90;;
76801;SDS011;65752;50.832;10.950;2022-12-18T00:10:52;10.27;;;4.97;;
76801;SDS011;65752;50.832;10.950;2022-12-18T00:11:52;11.85;;;6.90;;
76801;SDS011;65752;50.832;10.950;2022-12-18T00:12:52;12.32;;;6.00;;
76801;SDS011;65752;50.832;10.950;2022-12-18T00:13:53;6.82;;;3.90;;
76801;SDS011;65752;50.832;10.950;2022-12-18T00:14:55;9.77;;;5.07;;
76801;SDS011;65752;50.832;10.950;2022-12-18T00:15:55;9.38;;;5.32;;
76801;SDS011;65752;50.832;10.950;2022-12-18T00:16:55;8.02;;;5.22;;
76801;SDS011;65752;50.832;10.950;2022-12-18T00:17:58;6.80;;;4.43;;
76801;SDS011;65752;50.832;10.950;2022-12-18T00:18:58;13.23;;;5.78;;
76801;SDS011;65752;50.832;10.950;2022-12-18T00:20:00;10.52;;;5.53;;
76801;SDS011;65752;50.832;10.950;2022-12-18T00:21:01;9.57;;;5.07;;
76801;SDS011;65752;50.832;10.950;2022-12-18T00:23:03;7.60;;;3.67;;
76801;SDS011;65752;50.832;10.950;2022-12-18T00:24:04;8.75;;;4.35;;
76801;SDS011;65752;50.832;10.950;2022-12-18T00:25:05;13.82;;;4.68;;
76801;SDS011;65752;50.832;10.950;2022-12-18T00:26:06;8.55;;;4.03;;
76801;SDS011;65752;50.832;10.950;2022-12-18T00:27:09;9.15;;;4.47;;
76801;SDS011;65752;50.832;10.950;2022-12-18T00:28:10;8.35;;;4.63;;
76801;SDS011;65752;50.832;10.950;2022-12-18T00:29:11;8.23;;;4.40;;
76801;SDS011;65752;50.832;10.950;2022-12-18T00:30:13;9.88;;;5.25;;
76801;SDS011;65752;50.832;10.950;2022-12-18T00:31:15;9.63;;;4.63;;
76801;SDS011;65752;50.832;10.950;2022-12-18T00:32:16;9.73;;;4.82;;
76801;SDS011;65752;50.832;10.950;2022-12-18T00:33:17;9.13;;;5.43;;
76801;SDS011;65752;50.832;10.950;2022-12-18T00:34:17;11.70;;;4.65;;
76801;SDS011;65752;50.832;10.950;2022-12-18T00:35:18;6.25;;;4.00;;
76801;SDS011;65752;50.832;10.950;2022-12-18T00:36:19;9.20;;;4.55;;
76801;SDS011;65752;50.832;10.950;2022-12-18T00:37:20;9.85;;;5.22;;
76801;SDS011;65752;50.832;10.950;2022-12-18T00:38:20;8.30;;;5.18;;
76801;SDS011;65752;50.832;10.950;2022-12-18T00:39:21;7.88;;;4.60;;
76801;SDS011;65752;50.832;10.950;2022-12-18T00:40:21;9.88;;;4.57;;
76801;SDS011;65752;50.832;10.950;2022-12-18T00:41:22;11.07;;;4.53;;
76801;SDS011;65752;50.832;10.950;2022-12-18T00:42:41;8.38;;;4.57;;
76801;SDS011;65752;50.832;10.950;2022-12-18T00:43:57;6.35;;;4.15;;
76801;SDS011;65752;50.832;10.950;2022-12-18T00:44:57;9.15;;;4.60;;
76801;SDS011;65752;50.832;10.950;2022-12-18T00:45:57;8.88;;;4.32;;
76801;SDS011;65752;50.832;10.950;2022-12-18T00:46:58;9.00;;;5.35;;
76801;SDS011;65752;50.832;10.950;2022-12-18T00:47:58;10.07;;;4.90;;
76801;SDS011;65752;50.832;10.950;2022-12-18T00:48:59;8.80;;;5.05;;
76801;SDS011;65752;50.832;10.950;2022-12-18T00:49:59;10.05;;;5.00;;
76801;SDS011;65752;50.832;10.950;2022-12-18T00:50:59;10.35;;;4.50;;
76801;SDS011;65752;50.832;10.950;2022-12-18T00:52:00;7.35;;;4.53;;
76801;SDS011;65752;50.832;10.950;2022-12-18T00:53:00;11.90;;;5.05;;
76801;SDS011;65752;50.832;10.950;2022-12-18T00:54:00;7.68;;;4.38;;
76801;SDS011;65752;50.832;10.950;2022-12-18T00:55:01;7.95;;;3.92;;
76801;SDS011;65752;50.832;10.950;2022-12-18T00:56:01;8.65;;;3.92;;
76801;SDS011;65752;50.832;10.950;2022-12-18T00:57:01;8.77;;;5.85;;
76801;SDS011;65752;50.832;10.950;2022-12-18T00:58:02;7.25;;;4.28;;
76801;SDS011;65752;50.832;10.950;2022-12-18T00:59:02;12.25;;;3.92;;
76801;SDS011;65752;50.832;10.950;2022-12-18T01:00:04;13.10;;;4.00;;
76801;SDS011;65752;50.832;10.950;2022-12-18T01:01:05;10.93;;;4.10;;
76801;SDS011;65752;50.832;10.950;2022-12-18T01:02:06;10.27;;;4.60;;
76801;SDS011;65752;50.832;10.950;2022-12-18T01:03:06;8.55;;;3.80;;
76801;SDS011;65752;50.832;10.950;2022-12-18T01:04:07;6.93;;;3.40;;
76801;SDS011;65752;50.832;10.950;2022-12-18T01:05:07;10.00;;;4.45;;
76801;SDS011;65752;50.832;10.950;2022-12-18T01:06:09;8.20;;;4.65;;
76801;SDS011;65752;50.832;10.950;2022-12-18T01:07:11;6.55;;;3.72;;
76801;SDS011;65752;50.832;10.950;2022-12-18T01:08:11;8.73;;;3.75;;
76801;SDS011;65752;50.832;10.950;2022-12-18T01:09:12;7.75;;;4.50;;
76801;SDS011;65752;50.832;10.950;2022-12-18T01:10:12;5.68;;;3.53;;
76801;SDS011;65752;50.832;10.950;2022-12-18T01:11:14;7.63;;;3.03;;
76801;SDS011;65752;50.832;10.950;2022-12-18T01:12:18;5.68;;;3.25;;
76801;SDS011;65752;50.832;10.950;2022-12-18T01:13:18;6.90;;;4.20;;
76801;SDS011;65752;50.832;10.950;2022-12-18T01:14:18;5.93;;;3.60;;
76801;SDS011;65752;50.832;10.950;2022-12-18T01:15:19;6.53;;;4.07;;
76801;SDS011;65752;50.832;10.950;2022-12-18T01:16:20;6.03;;;3.65;;
76801;SDS011;65752;50.832;10.950;2022-12-18T01:17:20;6.25;;;3.70;;
76801;SDS011;65752;50.832;10.950;2022-12-18T01:18:21;6.97;;;4.45;;
76801;SDS011;65752;50.832;10.950;2022-12-18T01:19:21;5.50;;;3.53;;
76801;SDS011;65752;50.832;10.950;2022-12-18T01:20:23;6.18;;;3.75;;
76801;SDS011;65752;50.832;10.950;2022-12-18T01:21:24;7.07;;;3.50;;
76801;SDS011;65752;50.832;10.950;2022-12-18T01:22:24;6.13;;;3.05;;
76801;SDS011;65752;50.832;10.950;2022-12-18T01:23:24;10.35;;;4.45;;
76801;SDS011;65752;50.832;10.950;2022-12-18T01:24:25;6.75;;;3.65;;
76801;SDS011;65752;50.832;10.950;2022-12-18T01:25:25;6.95;;;3.90;;
76801;SDS011;65752;50.832;10.950;2022-12-18T01:26:26;7.57;;;4.03;;
76801;SDS011;65752;50.832;10.950;2022-12-18T01:27:27;6.65;;;3.72;;
76801;SDS011;65752;50.832;10.950;2022-12-18T01:28:27;5.78;;;3.10;;
76801;SDS011;65752;50.832;10.950;2022-12-18T01:29:27;7.85;;;3.33;;
76801;SDS011;65752;50.832;10.950;2022-12-18T01:30:28;7.40;;;3.92;;
76801;SDS011;65752;50.832;10.950;2022-12-18T01:31:29;6.30;;;3.17;;
76801;SDS011;65752;50.832;10.950;2022-12-18T01:32:31;7.70;;;3.58;;
76801;SDS011;65752;50.832;10.950;2022-12-18T01:33:31;6.85;;;3.28;;
76801;SDS011;65752;50.832;10.950;2022-12-18T01:34:32;7.50;;;3.63;;
76801;SDS011;65752;50.832;10.950;2022-12-18T01:35:32;6.20;;;3.22;;
76801;SDS011;65752;50.832;10.950;2022-12-18T01:36:34;8.50;;;4.28;;
76801;SDS011;65752;50.832;10.950;2022-12-18T01:37:35;6.65;;;3.65;;
76801;SDS011;65752;50.832;10.950;2022-12-18T01:38:35;7.55;;;3.22;;
76801;SDS011;65752;50.832;10.950;2022-12-18T01:39:36;7.47;;;3.30;;
76801;SDS011;65752;50.832;10.950;2022-12-18T01:40:36;4.75;;;2.85;;
76801;SDS011;65752;50.832;10.950;2022-12-18T01:41:37;10.25;;;3.10;;
76801;SDS011;65752;50.832;10.950;2022-12-18T01:42:56;6.03;;;3.40;;
76801;SDS011;65752;50.832;10.950;2022-12-18T01:43:57;6.40;;;3.58;;
76801;SDS011;65752;50.832;10.950;2022-12-18T01:46:16;7.85;;;4.18;;
76801;SDS011;65752;50.832;10.950;2022-12-18T01:47:20;7.60;;;3.58;;
76801;SDS011;65752;50.832;10.950;2022-12-18T01:48:23;4.75;;;3.45;;
76801;SDS011;65752;50.832;10.950;2022-12-18T01:49:23;8.18;;;4.00;;
76801;SDS011;65752;50.832;10.950;2022-12-18T01:50:32;5.55;;;2.90;;
76801;SDS011;65752;50.832;10.950;2022-12-18T01:51:37;5.93;;;2.97;;
76801;SDS011;65752;50.832;10.950;2022-12-18T01:52:37;7.28;;;2.40;;
76801;SDS011;65752;50.832;10.950;2022-12-18T01:53:39;5.43;;;3.10;;
76801;SDS011;65752;50.832;10.950;2022-12-18T01:54:41;6.32;;;3.08;;
76801;SDS011;65752;50.832;10.950;2022-12-18T01:55:48;6.05;;;3.10;;
76801;SDS011;65752;50.832;10.950;2022-12-18T01:56:50;6.10;;;2.95;;
76801;SDS011;65752;50.832;10.950;2022-12-18T01:57:52;4.40;;;2.72;;
76801;SDS011;65752;50.832;10.950;2022-12-18T01:58:58;5.18;;;3.38;;
76801;SDS011;65752;50.832;10.950;2022-12-18T02:00:04;5.57;;;3.35;;
76801;SDS011;65752;50.832;10.950;2022-12-18T02:01:07;6.60;;;3.53;;
76801;SDS011;65752;50.832;10.950;2022-12-18T02:02:08;5.93;;;3.05;;
76801;SDS011;65752;50.832;10.950;2022-12-18T02:03:09;5.00;;;3.15;;
76801;SDS011;65752;50.832;10.950;2022-12-18T02:04:19;5.93;;;3.25;;
76801;SDS011;65752;50.832;10.950;2022-12-18T02:05:34;7.93;;;3.15;;
76801;SDS011;65752;50.832;10.950;2022-12-18T02:06:38;7.00;;;3.33;;
76801;SDS011;65752;50.832;10.950;2022-12-18T02:10:15;5.18;;;3.28;;
76801;SDS011;65752;50.832;10.950;2022-12-18T02:12:49;7.13;;;2.75;;
76801;SDS011;65752;50.832;10.950;2022-12-18T02:14:34;2.95;;;2.13;;
76801;SDS011;65752;50.832;10.950;2022-12-18T02:18:27;3.85;;;2.20;;
76801;SDS011;65752;50.832;10.950;2022-12-18T02:19:41;7.65;;;3.70;;
76801;SDS011;65752;50.832;10.950;2022-12-18T02:20:59;8.63;;;2.38;;
76801;SDS011;65752;50.832;10.950;2022-12-18T02:24:54;4.45;;;2.20;;
76801;SDS011;65752;50.832;10.950;2022-12-18T02:27:05;4.40;;;2.55;;
76801;SDS011;65752;50.832;10.950;2022-12-18T02:28:08;4.97;;;2.47;;
76801;SDS011;65752;50.832;10.950;2022-12-18T02:29:15;4.22;;;2.22;;
76801;SDS011;65752;50.832;10.950;2022-12-18T02:30:18;5.18;;;2.25;;
76801;SDS011;65752;50.832;10.950;2022-12-18T02:31:22;4.43;;;3.35;;
76801;SDS011;65752;50.832;10.950;2022-12-18T02:32:27;3.63;;;2.35;;
76801;SDS011;65752;50.832;10.950;2022-12-18T02:33:28;5.07;;;3.00;;
76801;SDS011;65752;50.832;10.950;2022-12-18T02:34:31;7.38;;;2.58;;
76801;SDS011;65752;50.832;10.950;2022-12-18T02:36:33;4.22;;;2.47;;
76801;SDS011;65752;50.832;10.950;2022-12-18T02:37:35;6.15;;;3.00;;
76801;SDS011;65752;50.832;10.950;2022-12-18T02:38:36;5.00;;;2.58;;
76801;SDS011;65752;50.832;10.950;2022-12-18T02:39:37;6.03;;;3.03;;
76801;SDS011;65752;50.832;10.950;2022-12-18T02:40:38;5.57;;;3.22;;
76801;SDS011;65752;50.832;10.950;2022-12-18T02:41:39;6.65;;;2.92;;
76801;SDS011;65752;50.832;10.950;2022-12-18T02:42:39;6.32;;;3.40;;
76801;SDS011;65752;50.832;10.950;2022-12-18T02:43:40;5.30;;;2.95;;
76801;SDS011;65752;50.832;10.950;2022-12-18T02:44:47;7.97;;;3.25;;
76801;SDS011;65752;50.832;10.950;2022-12-18T02:45:52;5.82;;;3.03;;
76801;SDS011;65752;50.832;10.950;2022-12-18T02:46:54;7.53;;;2.67;;
76801;SDS011;65752;50.832;10.950;2022-12-18T02:47:54;5.32;;;2.33;;
76801;SDS011;65752;50.832;10.950;2022-12-18T02:48:57;5.78;;;2.20;;
76801;SDS011;65752;50.832;10.950;2022-12-18T02:52:58;5.55;;;2.42;;
76801;SDS011;65752;50.832;10.950;2022-12-18T02:54:10;3.75;;;2.05;;
76801;SDS011;65752;50.832;10.950;2022-12-18T02:56:45;7.38;;;2.58;;
76801;SDS011;65752;50.832;10.950;2022-12-18T02:59:01;5.50;;;2.67;;
76801;SDS011;65752;50.832;10.950;2022-12-18T03:00:20;4.57;;;2.53;;
76801;SDS011;65752;50.832;10.950;2022-12-18T03:03:26;5.43;;;2.70;;
76801;SDS011;65752;50.832;10.950;2022-12-18T03:04:30;4.50;;;1.83;;
76801;SDS011;65752;50.832;10.950;2022-12-18T03:05:45;4.50;;;3.33;;
76801;SDS011;65752;50.832;10.950;2022-12-18T03:06:50;2.55;;;1.85;;
76801;SDS011;65752;50.832;10.950;2022-12-18T03:07:58;5.68;;;2.08;;
76801;SDS011;65752;50.832;10.950;2022-12-18T03:09:06;3.53;;;2.15;;
76801;SDS011;65752;50.832;10.950;2022-12-18T03:10:12;6.03;;;3.25;;
76801;SDS011;65752;50.832;10.950;2022-12-18T03:11:14;6.07;;;2.50;;
76801;SDS011;65752;50.832;10.950;2022-12-18T03:12:15;5.47;;;2.63;;
76801;SDS011;65752;50.832;10.950;2022-12-18T03:13:28;6.13;;;2.45;;
76801;SDS011;65752;50.832;10.950;2022-12-18T03:14:34;6.88;;;2.55;;
76801;SDS011;65752;50.832;10.950;2022-12-18T03:15:44;6.28;;;2.08;;
76801;SDS011;65752;50.832;10.950;2022-12-18T03:16:46;5.18;;;2.30;;
76801;SDS011;65752;50.832;10.950;2022-12-18T03:17:51;3.67;;;2.60;;
76801;SDS011;65752;50.832;10.950;2022-12-18T03:18:55;5.60;;;2.78;;
76801;SDS011;65752;50.832;10.950;2022-12-18T03:20:14;5.38;;;2.00;;
76801;SDS011;65752;50.832;10.950;2022-12-18T03:21:16;5.78;;;2.30;;
76801;SDS011;65752;50.832;10.950;2022-12-18T03:22:18;6.32;;;2.55;;
76801;SDS011;65752;50.832;10.950;2022-12-18T03:23:21;4.30;;;3.08;;
76801;SDS011;65752;50.832;10.950;2022-12-18T03:24:23;5.82;;;2.22;;
76801;SDS011;65752;50.832;10.950;2022-12-18T03:25:24;6.50;;;2.35;;
76801;SDS011;65752;50.832;10.950;2022-12-18T03:26:25;2.85;;;2.33;;
76801;SDS011;65752;50.832;10.950;2022-12-18T03:27:28;5.07;;;2.63;;
76801;SDS011;65752;50.832;10.950;2022-12-18T03:28:29;6.13;;;2.63;;
76801;SDS011;65752;50.832;10.950;2022-12-18T03:29:34;4.75;;;2.72;;
76801;SDS011;65752;50.832;10.950;2022-12-18T03:30:37;3.38;;;2.30;;
76801;SDS011;65752;50.832;10.950;2022-12-18T03:31:39;6.00;;;2.63;;
76801;SDS011;65752;50.832;10.950;2022-12-18T03:32:42;4.57;;;2.70;;
76801;SDS011;65752;50.832;10.950;2022-12-18T03:33:53;4.32;;;2.20;;
76801;SDS011;65752;50.832;10.950;2022-12-18T03:35:02;3.88;;;2.13;;
76801;SDS011;65752;50.832;10.950;2022-12-18T03:36:04;3.45;;;1.88;;
76801;SDS011;65752;50.832;10.950;2022-12-18T03:37:04;3.78;;;1.90;;
76801;SDS011;65752;50.832;10.950;2022-12-18T03:38:05;6.68;;;1.88;;
76801;SDS011;65752;50.832;10.950;2022-12-18T03:39:06;5.05;;;2.25;;
76801;SDS011;65752;50.832;10.950;2022-12-18T03:40:07;4.53;;;2.30;;
76801;SDS011;65752;50.832;10.950;2022-12-18T03:42:38;3.63;;;1.83;;
76801;SDS011;65752;50.832;10.950;2022-12-18T03:43:59;6.53;;;2.20;;
76801;SDS011;65752;50.832;10.950;2022-12-18T03:45:20;4.03;;;2.20;;
76801;SDS011;65752;50.832;10.950;2022-12-18T03:46:28;3.45;;;1.92;;
76801;SDS011;65752;50.832;10.950;2022-12-18T03:47:53;3.47;;;1.83;;
76801;SDS011;65752;50.832;10.950;2022-12-18T03:49:00;3.25;;;2.03;;
76801;SDS011;65752;50.832;10.950;2022-12-18T03:51:24;7.03;;;2.42;;
76801;SDS011;65752;50.832;10.950;2022-12-18T03:53:17;5.15;;;2.60;;
76801;SDS011;65752;50.832;10.950;2022-12-18T03:54:03;2.33;;;1.65;;
76801;SDS011;65752;50.832;10.950;2022-12-18T03:55:05;3.50;;;1.75;;
76801;SDS011;65752;50.832;10.950;2022-12-18T03:56:07;6.13;;;2.25;;
76801;SDS011;65752;50.832;10.950;2022-12-18T03:57:12;3.33;;;2.00;;
76801;SDS011;65752;50.832;10.950;2022-12-18T03:58:17;7.07;;;2.75;;
76801;SDS011;65752;50.832;10.950;2022-12-18T03:59:19;4.95;;;2.17;;
76801;SDS011;65752;50.832;10.950;2022-12-18T04:00:20;2.60;;;2.10;;
76801;SDS011;65752;50.832;10.950;2022-12-18T04:01:22;5.60;;;2.30;;
76801;SDS011;65752;50.832;10.950;2022-12-18T04:02:26;3.75;;;2.13;;
76801;SDS011;65752;50.832;10.950;2022-12-18T04:03:26;3.95;;;2.03;;
76801;SDS011;65752;50.832;10.950;2022-12-18T04:04:28;3.83;;;1.92;;
76801;SDS011;65752;50.832;10.950;2022-12-18T04:05:30;5.30;;;2.78;;
76801;SDS011;65752;50.832;10.950;2022-12-18T04:06:32;6.05;;;2.58;;
76801;SDS011;65752;50.832;10.950;2022-12-18T04:07:32;4.90;;;2.10;;
76801;SDS011;65752;50.832;10.950;2022-12-18T04:08:33;3.75;;;2.13;;
76801;SDS011;65752;50.832;10.950;2022-12-18T04:09:34;3.65;;;2.17;;
76801;SDS011;65752;50.832;10.950;2022-12-18T04:10:36;4.00;;;1.90;;
76801;SDS011;65752;50.832;10.950;2022-12-18T04:11:36;5.43;;;2.33;;
76801;SDS011;65752;50.832;10.950;2022-12-18T04:12:37;5.97;;;2.65;;
76801;SDS011;65752;50.832;10.950;2022-12-18T04:13:37;3.47;;;1.75;;
76801;SDS011;65752;50.832;10.950;2022-12-18T04:14:38;6.07;;;2.45;;
76801;SDS011;65752;50.832;10.950;2022-12-18T04:15:38;6.82;;;2.05;;
76801;SDS011;65752;50.832;10.950;2022-12-18T04:16:39;2.35;;;1.77;;
76801;SDS011;65752;50.832;10.950;2022-12-18T04:17:47;3.15;;;2.50;;
76801;SDS011;65752;50.832;10.950;2022-12-18T04:18:48;3.58;;;2.25;;
76801;SDS011;65752;50.832;10.950;2022-12-18T04:19:48;6.00;;;2.15;;
76801;SDS011;65752;50.832;10.950;2022-12-18T04:20:49;1.60;;;1.33;;
76801;SDS011;65752;50.832;10.950;2022-12-18T04:21:49;4.30;;;2.13;;
76801;SDS011;65752;50.832;10.950;2022-12-18T04:22:50;2.42;;;1.90;;
76801;SDS011;65752;50.832;10.950;2022-12-18T04:23:50;2.75;;;1.58;;
76801;SDS011;65752;50.832;10.950;2022-12-18T04:24:50;3.28;;;1.42;;
76801;SDS011;65752;50.832;10.950;2022-12-18T04:25:51;6.30;;;2.20;;
76801;SDS011;65752;50.832;10.950;2022-12-18T04:26:51;4.13;;;1.83;;
76801;SDS011;65752;50.832;10.950;2022-12-18T04:27:51;1.90;;;1.70;;
76801;SDS011;65752;50.832;10.950;2022-12-18T04:28:51;4.88;;;2.20;;
76801;SDS011;65752;50.832;10.950;2022-12-18T04:29:52;3.78;;;2.25;;
76801;SDS011;65752;50.832;10.950;2022-12-18T04:30:52;3.80;;;1.98;;
76801;SDS011;65752;50.832;10.950;2022-12-18T04:31:52;2.22;;;1.60;;
76801;SDS011;65752;50.832;10.950;2022-12-18T04:32:53;3.25;;;1.85;;
76801;SDS011;65752;50.832;10.950;2022-12-18T04:33:53;5.82;;;2.03;;
76801;SDS011;65752;50.832;10.950;2022-12-18T04:34:53;2.30;;;1.77;;
76801;SDS011;65752;50.832;10.950;2022-12-18T04:35:54;3.40;;;2.05;;
76801;SDS011;65752;50.832;10.950;2022-12-18T04:36:54;2.75;;;1.90;;
76801;SDS011;65752;50.832;10.950;2022-12-18T04:37:54;4.63;;;2.30;;
76801;SDS011;65752;50.832;10.950;2022-12-18T04:38:55;5.55;;;1.83;;
76801;SDS011;65752;50.832;10.950;2022-12-18T04:39:55;3.42;;;2.30;;
76801;SDS011;65752;50.832;10.950;2022-12-18T04:40:55;1.90;;;1.20;;
76801;SDS011;65752;50.832;10.950;2022-12-18T04:41:56;3.75;;;2.15;;
76801;SDS011;65752;50.832;10.950;2022-12-18T04:42:56;4.00;;;2.33;;
76801;SDS011;65752;50.832;10.950;2022-12-18T04:43:56;4.57;;;1.83;;
76801;SDS011;65752;50.832;10.950;2022-12-18T04:44:57;4.55;;;1.88;;
76801;SDS011;65752;50.832;10.950;2022-12-18T04:46:03;3.25;;;1.95;;
76801;SDS011;65752;50.832;10.950;2022-12-18T04:47:05;4.97;;;2.42;;
76801;SDS011;65752;50.832;10.950;2022-12-18T04:48:05;2.20;;;1.33;;
76801;SDS011;65752;50.832;10.950;2022-12-18T04:49:06;3.20;;;1.45;;
76801;SDS011;65752;50.832;10.950;2022-12-18T04:50:06;2.38;;;1.30;;
76801;SDS011;65752;50.832;10.950;2022-12-18T04:51:07;4.32;;;2.05;;
76801;SDS011;65752;50.832;10.950;2022-12-18T04:52:07;3.67;;;1.92;;
76801;SDS011;65752;50.832;10.950;2022-12-18T04:53:07;6.40;;;1.85;;
76801;SDS011;65752;50.832;10.950;2022-12-18T04:54:08;2.83;;;1.50;;
76801;SDS011;65752;50.832;10.950;2022-12-18T04:55:08;4.78;;;2.15;;
76801;SDS011;65752;50.832;10.950;2022-12-18T04:56:12;3.30;;;1.85;;
76801;SDS011;65752;50.832;10.950;2022-12-18T04:57:14;2.72;;;1.67;;
76801;SDS011;65752;50.832;10.950;2022-12-18T04:58:14;6.18;;;1.48;;
76801;SDS011;65752;50.832;10.950;2022-12-18T04:59:14;5.82;;;2.47;;
76801;SDS011;65752;50.832;10.950;2022-12-18T05:00:15;2.20;;;1.15;;
76801;SDS011;65752;50.832;10.950;2022-12-18T05:01:16;3.75;;;2.00;;
76801;SDS011;65752;50.832;10.950;2022-12-18T05:02:17;2.53;;;1.50;;
76801;SDS011;65752;50.832;10.950;2022-12-18T05:03:17;2.30;;;1.42;;
76801;SDS011;65752;50.832;10.950;2022-12-18T05:04:18;2.67;;;1.48;;
76801;SDS011;65752;50.832;10.950;2022-12-18T05:05:18;6.47;;;2.00;;
76801;SDS011;65752;50.832;10.950;2022-12-18T05:06:18;6.70;;;2.13;;
76801;SDS011;65752;50.832;10.950;2022-12-18T05:07:19;2.38;;;1.65;;
76801;SDS011;65752;50.832;10.950;2022-12-18T05:08:19;3.30;;;1.75;;
76801;SDS011;65752;50.832;10.950;2022-12-18T05:09:19;2.85;;;1.40;;
76801;SDS011;65752;50.832;10.950;2022-12-18T05:10:19;3.92;;;2.08;;
76801;SDS011;65752;50.832;10.950;2022-12-18T05:11:20;5.30;;;2.05;;
76801;SDS011;65752;50.832;10.950;2022-12-18T05:12:20;2.45;;;2.15;;
76801;SDS011;65752;50.832;10.950;2022-12-18T05:13:20;3.60;;;2.20;;
76801;SDS011;65752;50.832;10.950;2022-12-18T05:14:21;3.95;;;2.13;;
76801;SDS011;65752;50.832;10.950;2022-12-18T05:15:21;4.15;;;1.88;;
76801;SDS011;65752;50.832;10.950;2022-12-18T05:16:21;5.95;;;2.22;;
76801;SDS011;65752;50.832;10.950;2022-12-18T05:17:25;4.78;;;2.22;;
76801;SDS011;65752;50.832;10.950;2022-12-18T05:18:25;4.03;;;1.70;;
76801;SDS011;65752;50.832;10.950;2022-12-18T05:19:26;1.95;;;1.60;;
76801;SDS011;65752;50.832;10.950;2022-12-18T05:20:26;5.43;;;2.50;;
76801;SDS011;65752;50.832;10.950;2022-12-18T05:21:27;6.72;;;2.17;;
76801;SDS011;65752;50.832;10.950;2022-12-18T05:22:27;6.13;;;1.73;;
76801;SDS011;65752;50.832;10.950;2022-12-18T05:23:28;2.85;;;1.98;;
76801;SDS011;65752;50.832;10.950;2022-12-18T05:24:28;4.18;;;1.85;;
76801;SDS011;65752;50.832;10.950;2022-12-18T05:25:28;3.17;;;1.50;;
76801;SDS011;65752;50.832;10.950;2022-12-18T05:26:29;5.55;;;2.08;;
76801;SDS011;65752;50.832;10.950;2022-12-18T05:27:29;2.33;;;1.60;;
76801;SDS011;65752;50.832;10.950;2022-12-18T05:28:30;3.25;;;1.55;;
76801;SDS011;65752;50.832;10.950;2022-12-18T05:29:32;4.05;;;2.08;;
76801;SDS011;65752;50.832;10.950;2022-12-18T05:30:32;4.68;;;2.22;;
76801;SDS011;65752;50.832;10.950;2022-12-18T05:31:32;4.22;;;1.73;;
76801;SDS011;65752;50.832;10.950;2022-12-18T05:32:33;2.70;;;2.13;;
76801;SDS011;65752;50.832;10.950;2022-12-18T05:33:34;3.53;;;2.13;;
76801;SDS011;65752;50.832;10.950;2022-12-18T05:34:34;3.75;;;1.65;;
76801;SDS011;65752;50.832;10.950;2022-12-18T05:35:34;3.75;;;2.17;;
76801;SDS011;65752;50.832;10.950;2022-12-18T05:36:35;2.38;;;1.23;;
76801;SDS011;65752;50.832;10.950;2022-12-18T05:37:35;6.57;;;1.73;;
76801;SDS011;65752;50.832;10.950;2022-12-18T05:38:36;5.65;;;1.55;;
76801;SDS011;65752;50.832;10.950;2022-12-18T05:39:37;3.75;;;1.98;;
76801;SDS011;65752;50.832;10.950;2022-12-18T05:40:40;5.30;;;1.67;;
76801;SDS011;65752;50.832;10.950;2022-12-18T05:41:42;2.53;;;1.05;;
76801;SDS011;65752;50.832;10.950;2022-12-18T05:42:42;3.92;;;1.77;;
76801;SDS011;65752;50.832;10.950;2022-12-18T05:43:42;2.42;;;1.15;;
76801;SDS011;65752;50.832;10.950;2022-12-18T05:44:43;3.20;;;1.77;;
76801;SDS011;65752;50.832;10.950;2022-12-18T05:45:43;2.60;;;1.10;;
76801;SDS011;65752;50.832;10.950;2022-12-18T05:46:44;4.75;;;1.90;;
76801;SDS011;65752;50.832;10.950;2022-12-18T05:47:44;2.72;;;1.50;;
76801;SDS011;65752;50.832;10.950;2022-12-18T05:48:44;3.92;;;1.48;;
76801;SDS011;65752;50.832;10.950;2022-12-18T05:49:45;3.70;;;1.40;;
76801;SDS011;65752;50.832;10.950;2022-12-18T05:50:48;3.15;;;1.85;;
76801;SDS011;65752;50.832;10.950;2022-12-18T05:51:49;6.13;;;2.28;;
76801;SDS011;65752;50.832;10.950;2022-12-18T05:52:49;7.43;;;2.25;;
76801;SDS011;65752;50.832;10.950;2022-12-18T05:53:49;3.08;;;1.92;;
76801;SDS011;65752;50.832;10.950;2022-12-18T05:54:50;3.53;;;1.73;;
76801;SDS011;65752;50.832;10.950;2022-12-18T05:55:50;3.55;;;1.75;;
76801;SDS011;65752;50.832;10.950;2022-12-18T05:56:50;3.45;;;2.17;;
76801;SDS011;65752;50.832;10.950;2022-12-18T05:57:51;5.38;;;1.85;;
76801;SDS011;65752;50.832;10.950;2022-12-18T05:58:52;3.13;;;1.75;;
76801;SDS011;65752;50.832;10.950;2022-12-18T05:59:53;5.72;;;2.60;;
76801;SDS011;65752;50.832;10.950;2022-12-18T06:00:53;2.80;;;1.67;;
76801;SDS011;65752;50.832;10.950;2022-12-18T06:01:53;6.88;;;2.35;;
76801;SDS011;65752;50.832;10.950;2022-12-18T06:02:54;2.70;;;1.63;;
76801;SDS011;65752;50.832;10.950;2022-12-18T06:03:54;4.63;;;2.08;;
76801;SDS011;65752;50.832;10.950;2022-12-18T06:04:55;5.90;;;1.45;;
76801;SDS011;65752;50.832;10.950;2022-12-18T06:05:55;6.20;;;1.67;;
76801;SDS011;65752;50.832;10.950;2022-12-18T06:06:55;2.60;;;1.90;;
76801;SDS011;65752;50.832;10.950;2022-12-18T06:07:56;4.38;;;1.65;;
76801;SDS011;65752;50.832;10.950;2022-12-18T06:08:56;3.22;;;1.48;;
76801;SDS011;65752;50.832;10.950;2022-12-18T06:09:57;3.38;;;1.60;;
76801;SDS011;65752;50.832;10.950;2022-12-18T06:10:57;3.78;;;2.10;;
76801;SDS011;65752;50.832;10.950;2022-12-18T06:11:57;2.78;;;1.60;;
76801;SDS011;65752;50.832;10.950;2022-12-18T06:12:58;2.97;;;1.67;;
76801;SDS011;65752;50.832;10.950;2022-12-18T06:13:59;4.65;;;2.00;;
76801;SDS011;65752;50.832;10.950;2022-12-18T06:15:00;5.32;;;2.25;;
76801;SDS011;65752;50.832;10.950;2022-12-18T06:16:04;3.65;;;1.50;;
76801;SDS011;65752;50.832;10.950;2022-12-18T06:17:04;4.70;;;1.63;;
76801;SDS011;65752;50.832;10.950;2022-12-18T06:18:05;5.55;;;1.98;;
76801;SDS011;65752;50.832;10.950;2022-12-18T06:19:05;3.60;;;1.63;;
76801;SDS011;65752;50.832;10.950;2022-12-18T06:20:05;3.08;;;1.38;;
76801;SDS011;65752;50.832;10.950;2022-12-18T06:21:06;3.67;;;1.70;;
76801;SDS011;65752;50.832;10.950;2022-12-18T06:22:07;4.60;;;2.00;;
76801;SDS011;65752;50.832;10.950;2022-12-18T06:23:07;6.25;;;2.47;;
76801;SDS011;65752;50.832;10.950;2022-12-18T06:24:09;2.72;;;1.67;;
76801;SDS011;65752;50.832;10.950;2022-12-18T06:25:10;4.63;;;1.98;;
76801;SDS011;65752;50.832;10.950;2022-12-18T06:26:11;4.72;;;1.65;;
76801;SDS011;65752;50.832;10.950;2022-12-18T06:27:12;3.70;;;1.48;;
76801;SDS011;65752;50.832;10.950;2022-12-18T06:28:12;2.60;;;1.42;;
76801;SDS011;65752;50.832;10.950;2022-12-18T06:29:13;2.53;;;1.55;;
76801;SDS011;65752;50.832;10.950;2022-12-18T06:30:14;5.60;;;1.83;;
76801;SDS011;65752;50.832;10.950;2022-12-18T06:31:14;2.30;;;1.20;;
76801;SDS011;65752;50.832;10.950;2022-12-18T06:32:15;2.25;;;1.27;;
76801;SDS011;65752;50.832;10.950;2022-12-18T06:33:15;5.53;;;1.95;;
76801;SDS011;65752;50.832;10.950;2022-12-18T06:34:16;3.85;;;1.67;;